createdAt,value
2022-08-28T00:01:57.728Z,95.70
2022-08-28T00:04:24.750Z,95.70
2022-08-28T00:06:51.693Z,95.70
2022-08-28T00:09:18.983Z,95.70
2022-08-28T00:11:46.594Z,95.70
2022-08-28T00:14:13.926Z,95.70
2022-08-28T00:16:41.297Z,95.70
2022-08-28T00:19:09.550Z,95.70
2022-08-28T00:21:37.204Z,95.70
2022-08-28T00:24:04.312Z,95.70
2022-08-28T00:26:49.812Z,95.70
2022-08-28T00:29:16.672Z,95.70
2022-08-28T00:31:44.299Z,95.70
2022-08-28T00:34:11.265Z,95.70
2022-08-28T00:36:38.659Z,95.70
2022-08-28T00:39:06.498Z,95.70
2022-08-28T00:41:34.854Z,95.70
2022-08-28T00:44:12.728Z,95.70
2022-08-28T00:46:40.787Z,95.70
2022-08-28T00:49:08.253Z,95.70
2022-08-28T00:51:54.695Z,95.70
2022-08-28T00:54:22.311Z,95.70
2022-08-28T00:56:50.124Z,95.70
2022-08-28T00:59:19.954Z,95.70
2022-08-28T01:01:48.802Z,95.70
2022-08-28T01:04:17.845Z,95.70
2022-08-28T01:06:53.579Z,95.70
2022-08-28T01:09:24.494Z,95.70
2022-08-28T01:11:54.282Z,95.70
2022-08-28T01:14:23.273Z,95.70
2022-08-28T01:16:55.603Z,95.70
2022-08-28T01:19:33.054Z,95.70
2022-08-28T01:22:22.423Z,95.70
2022-08-28T01:24:51.209Z,95.70
2022-08-28T01:27:18.462Z,95.70
2022-08-28T01:29:45.734Z,95.70
2022-08-28T01:32:37.894Z,95.70
2022-08-28T01:35:09.561Z,95.70
2022-08-28T01:37:37.101Z,95.70
2022-08-28T01:40:06.736Z,95.70
2022-08-28T01:42:39.299Z,95.70
2022-08-28T01:45:08.176Z,95.70
2022-08-28T01:47:35.037Z,95.70
2022-08-28T01:50:01.948Z,95.70
2022-08-28T01:52:29.017Z,95.70
2022-08-28T01:54:55.897Z,95.70
2022-08-28T01:57:24.960Z,95.70
2022-08-28T01:59:52.383Z,95.70
2022-08-28T02:02:19.216Z,95.70
2022-08-28T02:04:48.375Z,95.70
2022-08-28T02:07:16.987Z,95.70
2022-08-28T02:09:44.074Z,95.70
2022-08-28T02:12:11.018Z,95.70
2022-08-28T02:14:38.770Z,95.70
2022-08-28T02:17:05.687Z,95.70
2022-08-28T02:19:32.592Z,95.70
2022-08-28T02:21:59.518Z,95.70
2022-08-28T02:24:26.333Z,95.70
2022-08-28T02:26:53.172Z,95.70
2022-08-28T02:29:20.059Z,95.70
2022-08-28T02:31:46.973Z,95.70
2022-08-28T02:34:13.891Z,95.70
2022-08-28T02:36:42.323Z,95.70
2022-08-28T02:39:09.887Z,95.70
2022-08-28T02:41:36.849Z,95.70
2022-08-28T02:44:04.058Z,95.70
2022-08-28T02:46:31.093Z,95.70
2022-08-28T02:48:58.009Z,95.70
2022-08-28T02:51:25.524Z,95.70
2022-08-28T02:53:52.624Z,95.70
2022-08-28T02:56:19.570Z,95.70
2022-08-28T02:58:46.432Z,95.70
2022-08-28T03:01:14.032Z,95.70
2022-08-28T03:03:41.797Z,95.70
2022-08-28T03:06:09.692Z,95.70
2022-08-28T03:08:36.765Z,95.70
2022-08-28T03:11:03.621Z,95.70
2022-08-28T03:13:31.258Z,95.70
2022-08-28T03:15:58.505Z,95.70
2022-08-28T03:18:27.300Z,95.70
2022-08-28T03:20:55.934Z,95.70
2022-08-28T03:23:26.253Z,95.70
2022-08-28T03:25:59.162Z,95.70
2022-08-28T03:28:28.002Z,95.70
2022-08-28T03:30:54.982Z,95.70
2022-08-28T03:33:22.290Z,95.70
2022-08-28T03:35:49.438Z,95.70
2022-08-28T03:38:17.013Z,95.70
2022-08-28T03:40:46.339Z,95.70
2022-08-28T03:43:16.413Z,95.70
2022-08-28T03:46:01.228Z,95.70
2022-08-28T03:48:31.485Z,95.70
2022-08-28T03:51:00.302Z,95.70
2022-08-28T03:53:29.152Z,95.70
2022-08-28T03:55:56.730Z,95.70
2022-08-28T03:58:24.345Z,95.70
2022-08-28T04:00:51.508Z,95.70
2022-08-28T04:03:19.077Z,95.70
2022-08-28T04:05:47.029Z,95.70
2022-08-28T04:08:18.696Z,95.70
2022-08-28T04:10:46.654Z,95.70
2022-08-28T04:13:15.494Z,95.70
2022-08-28T04:15:42.683Z,95.70
2022-08-28T04:18:09.987Z,95.70
2022-08-28T04:20:37.058Z,95.70
2022-08-28T04:23:04.389Z,95.70
2022-08-28T04:25:31.687Z,95.70
2022-08-28T04:27:58.885Z,95.70
2022-08-28T04:30:25.746Z,95.70
2022-08-28T04:32:52.624Z,95.70
2022-08-28T04:35:19.631Z,95.70
2022-08-28T04:37:46.492Z,95.70
2022-08-28T04:40:16.020Z,95.70
2022-08-28T04:42:45.096Z,95.70
2022-08-28T04:45:12.078Z,95.70
2022-08-28T04:47:39.060Z,95.70
2022-08-28T04:50:07.286Z,95.70
2022-08-28T04:52:34.289Z,95.70
2022-08-28T04:55:01.655Z,95.70
2022-08-28T04:57:29.275Z,95.70
2022-08-28T04:59:58.719Z,95.70
2022-08-28T05:02:25.862Z,95.70
2022-08-28T05:04:53.061Z,95.70
2022-08-28T05:07:19.916Z,95.70
2022-08-28T05:09:46.794Z,95.70
2022-08-28T05:12:17.280Z,95.70
2022-08-28T05:14:44.784Z,95.70
2022-08-28T05:17:14.805Z,95.70
2022-08-28T05:19:42.333Z,95.70
2022-08-28T05:22:10.076Z,95.70
2022-08-28T05:24:38.149Z,95.70
2022-08-28T05:27:05.377Z,95.70
2022-08-28T05:29:32.294Z,95.70
2022-08-28T05:31:59.366Z,95.70
2022-08-28T05:34:26.321Z,95.70
2022-08-28T05:36:53.207Z,95.70
2022-08-28T05:39:20.112Z,95.70
2022-08-28T05:41:47.304Z,95.60
2022-08-28T05:44:15.955Z,95.60
2022-08-28T05:46:47.808Z,95.60
2022-08-28T05:49:15.771Z,95.50
2022-08-28T05:51:43.236Z,95.60
2022-08-28T05:54:11.542Z,95.60
2022-08-28T05:56:40.663Z,95.60
2022-08-28T05:59:09.394Z,95.60
2022-08-28T06:01:39.807Z,95.60
2022-08-28T06:04:13.524Z,95.60
2022-08-28T06:06:44.377Z,95.70
2022-08-28T06:09:30.283Z,95.70
2022-08-28T06:12:02.648Z,95.70
2022-08-28T06:14:34.788Z,95.70
2022-08-28T06:17:02.890Z,95.70
2022-08-28T06:19:31.199Z,95.70
2022-08-28T06:22:01.592Z,95.70
2022-08-28T06:24:34.504Z,95.70
2022-08-28T06:27:01.610Z,95.70
2022-08-28T06:29:29.295Z,95.70
2022-08-28T06:32:01.598Z,95.70
2022-08-28T06:34:29.621Z,95.70
2022-08-28T06:36:56.677Z,95.70
2022-08-28T06:39:23.928Z,95.70
2022-08-28T06:41:55.306Z,95.70
2022-08-28T06:44:24.239Z,95.70
2022-08-28T06:46:54.303Z,95.70
2022-08-28T06:49:22.555Z,95.70
2022-08-28T06:51:50.009Z,95.70
2022-08-28T06:54:50.433Z,95.70
2022-08-28T06:57:26.042Z,95.70
2022-08-28T06:59:57.231Z,95.70
2022-08-28T07:02:28.413Z,95.70
2022-08-28T07:04:56.319Z,95.70
2022-08-28T07:07:32.521Z,95.70
2022-08-28T07:09:59.665Z,95.70
2022-08-28T07:12:26.574Z,95.70
2022-08-28T07:14:53.452Z,95.70
2022-08-28T07:17:20.241Z,95.70
2022-08-28T07:19:47.135Z,95.70
2022-08-28T07:22:13.974Z,95.70
2022-08-28T07:24:40.922Z,95.70
2022-08-28T07:27:08.969Z,95.70
2022-08-28T07:29:35.981Z,95.70
2022-08-28T07:32:03.984Z,95.70
2022-08-28T07:34:30.963Z,95.70
2022-08-28T07:37:04.044Z,95.70
2022-08-28T07:39:34.984Z,95.70
2022-08-28T07:42:02.554Z,95.00
2022-08-28T07:44:48.214Z,94.90
2022-08-28T07:47:17.638Z,94.90
2022-08-28T07:50:00.676Z,94.90
2022-08-28T07:52:31.038Z,94.60
2022-08-28T07:54:59.148Z,94.30
2022-08-28T07:57:29.535Z,93.90
2022-08-28T08:00:00.918Z,93.60
2022-08-28T08:02:27.870Z,93.20
2022-08-28T08:04:54.984Z,92.10
2022-08-28T08:07:22.199Z,92.30
2022-08-28T08:09:49.229Z,91.40
2022-08-28T08:12:36.179Z,91.50
2022-08-28T08:15:21.842Z,91.80
2022-08-28T08:17:49.859Z,91.10
2022-08-28T08:20:17.745Z,90.60
2022-08-28T08:22:44.671Z,89.90
2022-08-28T08:25:11.513Z,89.30
2022-08-28T08:27:42.801Z,89.00
2022-08-28T08:30:12.009Z,88.10
2022-08-28T08:32:40.128Z,88.00
2022-08-28T08:35:07.544Z,88.10
2022-08-28T08:37:34.819Z,88.00
2022-08-28T08:40:01.806Z,87.70
2022-08-28T08:42:31.297Z,87.10
2022-08-28T08:45:00.707Z,87.70
2022-08-28T08:47:47.288Z,87.60
2022-08-28T08:50:34.196Z,86.70
2022-08-28T08:53:39.333Z,85.30
2022-08-28T08:56:06.580Z,84.60
2022-08-28T08:58:43.205Z,84.80
2022-08-28T09:01:20.300Z,84.70
2022-08-28T09:04:26.242Z,84.70
2022-08-28T09:06:58.895Z,84.90
2022-08-28T09:09:41.042Z,84.40
2022-08-28T09:12:20.851Z,84.20
2022-08-28T09:15:05.215Z,84.80
2022-08-28T09:17:37.457Z,84.70
2022-08-28T09:20:09.583Z,84.20
2022-08-28T09:22:44.428Z,85.30
2022-08-28T09:25:13.404Z,84.60
2022-08-28T09:27:53.275Z,83.30
2022-08-28T09:30:31.691Z,82.90
2022-08-28T09:33:01.082Z,82.00
2022-08-28T09:35:47.642Z,82.30
2022-08-28T09:38:27.874Z,82.20
2022-08-28T09:41:27.547Z,81.40
2022-08-28T09:43:56.058Z,82.70
2022-08-28T09:46:36.722Z,83.80
2022-08-28T09:49:12.543Z,83.30
2022-08-28T09:51:40.369Z,84.20
2022-08-28T09:54:39.031Z,83.60
2022-08-28T09:57:06.032Z,82.10
2022-08-28T09:59:32.907Z,82.70
2022-08-28T10:02:24.799Z,81.60
2022-08-28T10:04:55.293Z,80.70
2022-08-28T10:07:22.166Z,78.30
2022-08-28T10:10:21.096Z,76.80
2022-08-28T10:13:10.800Z,75.40
2022-08-28T10:16:00.635Z,75.70
2022-08-28T10:18:43.559Z,73.80
2022-08-28T10:21:15.439Z,74.80
2022-08-28T10:23:59.082Z,74.60
2022-08-28T10:26:29.805Z,75.40
2022-08-28T10:29:21.764Z,76.40
2022-08-28T10:32:14.480Z,76.00
2022-08-28T10:34:47.604Z,76.40
2022-08-28T10:37:27.501Z,76.60
2022-08-28T10:39:57.792Z,75.00
2022-08-28T10:42:36.567Z,74.80
2022-08-28T10:45:14.757Z,72.50
2022-08-28T10:47:45.763Z,72.20
2022-08-28T10:50:38.953Z,72.30
2022-08-28T10:53:13.974Z,72.40
2022-08-28T10:56:03.733Z,70.60
2022-08-28T10:58:48.829Z,71.10
2022-08-28T11:01:27.393Z,73.60
2022-08-28T11:03:55.661Z,74.00
2022-08-28T11:06:36.724Z,75.90
2022-08-28T11:09:38.845Z,77.20
2022-08-28T11:12:27.846Z,77.30
2022-08-28T11:14:55.817Z,74.10
2022-08-28T11:17:25.786Z,72.30
2022-08-28T11:20:21.412Z,70.50
2022-08-28T11:23:28.345Z,71.40
2022-08-28T11:26:17.869Z,70.70
2022-08-28T11:32:23.292Z,71.10
2022-08-28T11:45:06.736Z,71.10
2022-08-28T11:48:37.322Z,70.40
2022-08-28T11:54:50.650Z,70.40
2022-08-28T12:01:21.474Z,72.70
2022-08-28T12:04:08.109Z,73.10
2022-08-28T12:06:54.547Z,72.00
2022-08-28T12:10:13.798Z,73.00
2022-08-28T12:12:47.753Z,72.70
2022-08-28T12:15:53.424Z,72.20
2022-08-28T12:19:19.052Z,72.20
2022-08-28T12:21:48.421Z,71.30
2022-08-28T12:24:26.746Z,72.10
2022-08-28T12:26:57.098Z,70.90
2022-08-28T12:29:35.095Z,71.20
2022-08-28T12:32:43.459Z,70.60
2022-08-28T12:35:16.924Z,72.50
2022-08-28T12:37:52.357Z,72.80
2022-08-28T12:40:41.883Z,73.00
2022-08-28T12:43:15.446Z,73.50
2022-08-28T12:45:50.079Z,73.20
2022-08-28T12:48:18.292Z,73.00
2022-08-28T12:50:45.471Z,72.60
2022-08-28T12:53:16.464Z,73.10
2022-08-28T12:55:45.034Z,73.00
2022-08-28T12:58:28.019Z,72.80
2022-08-28T13:01:01.259Z,73.00
2022-08-28T13:03:29.359Z,74.60
2022-08-28T13:06:05.518Z,74.50
2022-08-28T13:08:37.869Z,75.00
2022-08-28T13:11:36.854Z,76.20
2022-08-28T13:14:05.656Z,76.70
2022-08-28T13:16:46.641Z,76.80
2022-08-28T13:19:29.173Z,77.30
2022-08-28T13:22:02.109Z,76.50
2022-08-28T13:24:31.894Z,76.10
2022-08-28T13:27:21.009Z,75.50
2022-08-28T13:30:00.122Z,75.10
2022-08-28T13:32:45.544Z,74.50
2022-08-28T13:35:49.985Z,74.90
2022-08-28T13:38:19.545Z,75.00
2022-08-28T13:40:59.289Z,75.40
2022-08-28T13:43:29.511Z,75.80
2022-08-28T13:45:56.498Z,76.00
2022-08-28T13:48:26.112Z,76.80
2022-08-28T13:50:57.853Z,76.40
2022-08-28T13:53:25.635Z,76.90
2022-08-28T13:55:52.862Z,77.50
2022-08-28T13:58:19.744Z,76.90
2022-08-28T14:00:49.818Z,77.40
2022-08-28T14:03:35.817Z,77.30
2022-08-28T14:06:16.966Z,76.60
2022-08-28T14:08:45.376Z,76.70
2022-08-28T14:11:14.145Z,76.10
2022-08-28T14:13:47.444Z,75.80
2022-08-28T14:16:24.928Z,76.20
2022-08-28T14:18:52.909Z,76.40
2022-08-28T14:21:20.791Z,76.70
2022-08-28T14:23:47.639Z,77.20
2022-08-28T14:26:14.655Z,76.70
2022-08-28T14:28:42.334Z,76.70
2022-08-28T14:31:14.185Z,76.40
2022-08-28T14:33:45.386Z,76.30
2022-08-28T14:36:22.390Z,76.80
2022-08-28T14:38:53.847Z,76.40
2022-08-28T14:41:22.871Z,77.20
2022-08-28T14:44:14.286Z,77.70
2022-08-28T14:46:44.438Z,77.70
2022-08-28T14:49:13.294Z,77.50
2022-08-28T14:51:41.870Z,76.90
2022-08-28T14:54:11.201Z,77.10
2022-08-28T14:56:38.126Z,77.50
2022-08-28T14:59:06.884Z,77.80
2022-08-28T15:01:40.307Z,78.00
2022-08-28T15:04:11.044Z,78.60
2022-08-28T15:06:42.534Z,78.80
2022-08-28T15:09:10.988Z,78.30
2022-08-28T15:11:39.298Z,78.90
2022-08-28T15:14:06.625Z,79.00
2022-08-28T15:16:36.648Z,79.60
2022-08-28T15:19:04.328Z,80.20
2022-08-28T15:21:34.185Z,79.90
2022-08-28T15:24:03.409Z,79.60
2022-08-28T15:26:31.286Z,79.50
2022-08-28T15:29:02.421Z,80.10
2022-08-28T15:31:31.315Z,80.60
2022-08-28T15:33:59.001Z,80.80
2022-08-28T15:36:25.877Z,81.00
2022-08-28T15:39:11.747Z,81.20
2022-08-28T15:41:38.658Z,81.40
2022-08-28T15:44:05.800Z,81.30
2022-08-28T15:46:34.643Z,81.30
2022-08-28T15:49:04.597Z,81.30
2022-08-28T15:51:34.936Z,81.30
2022-08-28T15:54:02.924Z,81.10
2022-08-28T15:56:31.840Z,81.80
2022-08-28T15:58:58.682Z,82.20
2022-08-28T16:01:25.670Z,82.20
2022-08-28T16:03:53.400Z,82.70
2022-08-28T16:06:22.703Z,82.80
2022-08-28T16:08:50.085Z,82.60
2022-08-28T16:11:19.048Z,82.90
2022-08-28T16:13:46.519Z,83.20
2022-08-28T16:16:13.790Z,83.40
2022-08-28T16:18:41.191Z,83.60
2022-08-28T16:21:09.050Z,83.30
2022-08-28T16:23:36.958Z,83.30
2022-08-28T16:26:04.775Z,83.10
2022-08-28T16:28:34.032Z,82.50
2022-08-28T16:31:07.303Z,82.30
2022-08-28T16:33:35.263Z,81.60
2022-08-28T16:36:11.295Z,82.10
2022-08-28T16:38:39.487Z,82.30
2022-08-28T16:41:16.120Z,82.50
2022-08-28T16:43:43.569Z,82.20
2022-08-28T16:46:13.325Z,82.20
2022-08-28T16:48:40.881Z,82.40
2022-08-28T16:51:08.101Z,82.80
2022-08-28T16:53:35.725Z,83.00
2022-08-28T16:56:03.725Z,83.40
2022-08-28T16:58:40.773Z,83.60
2022-08-28T17:01:09.162Z,84.40
2022-08-28T17:03:38.691Z,84.70
2022-08-28T17:06:18.926Z,85.00
2022-08-28T17:08:46.018Z,85.30
2022-08-28T17:11:13.483Z,85.50
2022-08-28T17:13:40.413Z,86.00
2022-08-28T17:16:08.312Z,86.30
2022-08-28T17:18:36.128Z,87.10
2022-08-28T17:21:22.844Z,87.20
2022-08-28T17:23:55.528Z,87.20
2022-08-28T17:26:24.624Z,87.60
2022-08-28T17:28:52.163Z,87.80
2022-08-28T17:31:19.790Z,88.00
2022-08-28T17:33:47.061Z,88.30
2022-08-28T17:38:49.426Z,88.90
2022-08-28T17:41:16.454Z,89.20
2022-08-28T17:43:43.300Z,89.40
2022-08-28T17:46:10.934Z,89.70
2022-08-28T17:54:41.893Z,90.80
2022-08-28T17:57:08.738Z,90.90
2022-08-28T17:59:35.703Z,91.30
2022-08-28T18:02:02.786Z,91.50
2022-08-28T18:04:29.776Z,91.70
2022-08-28T18:06:56.880Z,91.90
2022-08-28T18:09:24.226Z,92.10
2022-08-28T18:11:52.468Z,92.30
2022-08-28T18:14:19.419Z,92.50
2022-08-28T18:16:46.923Z,92.80
2022-08-28T18:19:13.794Z,93.00
2022-08-28T18:21:41.110Z,93.30
2022-08-28T18:24:08.932Z,93.50
2022-08-28T18:26:35.870Z,93.80
2022-08-28T18:29:02.706Z,93.90
2022-08-28T18:31:29.945Z,94.20
2022-08-28T18:33:57.312Z,94.40
2022-08-28T18:36:25.710Z,94.60
2022-08-28T18:38:53.782Z,94.70
2022-08-28T18:41:20.697Z,95.00
2022-08-28T18:43:47.846Z,95.10
2022-08-28T18:46:14.937Z,95.20
2022-08-28T18:48:44.468Z,95.30
2022-08-28T18:51:14.053Z,95.40
2022-08-28T18:53:44.451Z,95.50
2022-08-28T18:56:13.898Z,95.70
2022-08-28T18:58:41.871Z,95.70
2022-08-28T19:01:16.014Z,95.70
2022-08-28T19:03:45.789Z,95.70
2022-08-28T19:06:15.110Z,95.70
2022-08-28T19:08:42.753Z,95.70
2022-08-28T19:11:22.455Z,95.70
2022-08-28T19:13:52.480Z,95.70
2022-08-28T19:16:22.532Z,95.70
2022-08-28T19:18:55.109Z,95.70
2022-08-28T19:21:22.162Z,95.70
2022-08-28T19:23:55.540Z,95.70
2022-08-28T19:26:30.699Z,95.70
2022-08-28T19:28:57.679Z,95.70
2022-08-28T19:31:25.922Z,95.70
2022-08-28T19:33:53.468Z,95.70
2022-08-28T19:36:21.303Z,95.70
2022-08-28T19:38:48.157Z,95.70
2022-08-28T19:41:15.107Z,95.70
2022-08-28T19:43:44.386Z,95.70
2022-08-28T19:46:20.628Z,95.70
2022-08-28T19:48:48.985Z,95.70
2022-08-28T19:51:17.301Z,95.70
2022-08-28T19:53:44.781Z,95.70
2022-08-28T19:56:11.847Z,95.70
2022-08-28T19:58:39.279Z,95.70
2022-08-28T20:01:07.051Z,95.70
2022-08-28T20:03:36.666Z,95.70
2022-08-28T20:06:03.999Z,95.70
2022-08-28T20:08:31.024Z,95.70
2022-08-28T20:10:58.006Z,95.70
2022-08-28T20:13:24.797Z,95.70
2022-08-28T20:15:53.788Z,95.70
2022-08-28T20:18:21.683Z,95.70
2022-08-28T20:20:49.827Z,95.70
2022-08-28T20:23:17.643Z,95.70
2022-08-28T20:25:49.246Z,95.70
2022-08-28T20:28:17.592Z,95.70
2022-08-28T20:30:45.394Z,95.70
2022-08-28T20:33:12.871Z,95.70
2022-08-28T20:35:40.433Z,95.70
2022-08-28T20:38:07.639Z,95.70
2022-08-28T20:40:37.507Z,95.70
2022-08-28T20:43:04.810Z,95.70
2022-08-28T20:45:31.951Z,95.70
2022-08-28T20:47:59.516Z,95.70
2022-08-28T20:50:26.704Z,95.70
2022-08-28T20:52:53.912Z,95.70
2022-08-28T20:55:20.756Z,95.70
2022-08-28T20:57:47.562Z,95.70
2022-08-28T21:00:14.454Z,95.70
2022-08-28T21:02:41.359Z,95.70
2022-08-28T21:05:08.539Z,95.70
2022-08-28T21:07:35.608Z,95.70
2022-08-28T21:10:07.023Z,95.70
2022-08-28T21:12:38.971Z,95.70
2022-08-28T21:15:08.412Z,95.70
2022-08-28T21:17:35.305Z,95.70
2022-08-28T21:20:09.277Z,95.70
2022-08-28T21:22:37.504Z,95.70
2022-08-28T21:25:06.258Z,95.70
2022-08-28T21:27:33.614Z,95.70
2022-08-28T21:30:01.249Z,95.70
2022-08-28T21:32:29.595Z,95.70
2022-08-28T21:34:56.551Z,95.70
2022-08-28T21:37:23.576Z,95.70
2022-08-28T21:39:50.763Z,95.70
2022-08-28T21:42:17.779Z,95.70
2022-08-28T21:44:51.427Z,95.70
2022-08-28T21:47:21.401Z,95.70
2022-08-28T21:49:54.146Z,95.70
2022-08-28T21:52:25.061Z,95.70
2022-08-28T21:55:00.332Z,95.70
2022-08-28T21:57:28.331Z,95.70
2022-08-28T21:59:55.418Z,95.70
2022-08-28T22:02:22.556Z,95.70
2022-08-28T22:04:49.615Z,95.70
2022-08-28T22:07:17.713Z,95.70
2022-08-28T22:09:44.710Z,95.70
2022-08-28T22:12:11.692Z,95.70
2022-08-28T22:14:38.606Z,95.70
2022-08-28T22:17:11.213Z,95.70
2022-08-28T22:19:38.837Z,95.70
2022-08-28T22:22:24.271Z,95.70
2022-08-28T22:24:51.437Z,95.70
2022-08-28T22:27:18.272Z,95.70
2022-08-28T22:29:45.101Z,95.70
2022-08-28T22:32:12.032Z,95.70
2022-08-28T22:34:42.136Z,95.70
2022-08-28T22:37:11.520Z,95.70
2022-08-28T22:39:39.647Z,95.70
2022-08-28T22:42:06.901Z,95.70
2022-08-28T22:44:33.847Z,95.70
2022-08-28T22:47:00.632Z,95.70
2022-08-28T22:49:27.734Z,95.70
2022-08-28T22:51:54.562Z,95.70
2022-08-28T22:54:21.463Z,95.70
2022-08-28T22:56:48.343Z,95.70
2022-08-28T22:59:15.245Z,95.70
2022-08-28T23:01:42.817Z,95.70
2022-08-28T23:04:10.517Z,95.70
2022-08-28T23:06:40.480Z,95.70
2022-08-28T23:09:07.975Z,95.70
2022-08-28T23:11:36.463Z,95.70
2022-08-28T23:14:04.752Z,95.70
2022-08-28T23:16:31.786Z,95.70
2022-08-28T23:19:13.833Z,95.70
2022-08-28T23:21:44.211Z,95.70
2022-08-28T23:24:13.128Z,95.60
2022-08-28T23:26:40.299Z,95.70
2022-08-28T23:29:07.385Z,95.60
2022-08-28T23:31:34.267Z,95.50
2022-08-28T23:34:02.023Z,95.40
2022-08-28T23:36:28.970Z,95.30
2022-08-28T23:38:55.855Z,95.30
2022-08-28T23:41:22.688Z,95.20
2022-08-28T23:43:49.659Z,95.00
2022-08-28T23:46:17.892Z,94.90
2022-08-28T23:48:45.207Z,94.80
2022-08-28T23:51:14.249Z,94.80
2022-08-28T23:53:42.259Z,94.70
2022-08-28T23:56:09.635Z,94.60
2022-08-28T23:58:36.478Z,94.50
